createdAt,value
2023-03-04T00:00:35.148Z,89.47
2023-03-04T00:03:03.067Z,82.23
2023-03-04T00:05:31.370Z,89.73
2023-03-04T00:07:59.265Z,89.90
2023-03-04T00:10:27.237Z,86.17
2023-03-04T00:12:55.158Z,86.27
2023-03-04T00:15:24.470Z,85.80
2023-03-04T00:17:52.376Z,86.57
2023-03-04T00:20:20.400Z,89.03
2023-03-04T00:22:48.346Z,82.80
2023-03-04T00:25:16.494Z,81.00
2023-03-04T00:27:44.415Z,88.97
2023-03-04T00:30:13.036Z,85.00
2023-03-04T00:32:42.345Z,84.70
2023-03-04T00:35:10.722Z,87.77
2023-03-04T00:37:38.630Z,83.80
2023-03-04T00:40:07.695Z,88.87
2023-03-04T00:42:35.584Z,82.73
2023-03-04T00:45:03.555Z,85.23
2023-03-04T00:47:31.482Z,80.20
2023-03-04T00:50:00.796Z,82.43
2023-03-04T00:52:28.964Z,86.40
2023-03-04T00:54:56.913Z,80.33
2023-03-04T00:57:24.790Z,84.30
2023-03-04T00:59:52.702Z,82.37
2023-03-04T01:02:20.624Z,81.93
2023-03-04T01:04:48.561Z,84.83
2023-03-04T01:07:18.204Z,84.37
2023-03-04T01:09:46.180Z,84.33
2023-03-04T01:12:14.141Z,85.77
2023-03-04T01:14:42.033Z,79.83
2023-03-04T01:17:09.984Z,85.77
2023-03-04T01:19:37.992Z,81.63
2023-03-04T01:22:05.907Z,87.37
2023-03-04T01:24:35.232Z,90.80
2023-03-04T01:27:03.257Z,87.93
2023-03-04T01:29:31.175Z,87.10
2023-03-04T01:31:59.079Z,77.37
2023-03-04T01:34:27.177Z,82.57
2023-03-04T01:36:55.088Z,86.23
2023-03-04T01:39:23.870Z,83.80
2023-03-04T01:41:54.019Z,84.90
2023-03-04T01:44:22.020Z,84.40
2023-03-04T01:46:54.057Z,82.13
2023-03-04T01:49:22.557Z,79.33
2023-03-04T01:51:53.466Z,82.50
2023-03-04T01:54:23.013Z,78.83
2023-03-04T01:56:54.328Z,80.60
2023-03-04T01:59:23.993Z,77.80
2023-03-04T02:01:54.555Z,78.87
2023-03-04T02:04:24.869Z,81.50
2023-03-04T02:06:54.164Z,80.70
2023-03-04T02:09:22.674Z,80.07
2023-03-04T02:11:51.838Z,75.63
2023-03-04T02:14:22.197Z,78.40
2023-03-04T02:16:50.834Z,80.37
2023-03-04T02:19:27.864Z,78.20
2023-03-04T02:21:57.958Z,77.03
2023-03-04T02:24:31.792Z,81.00
2023-03-04T02:27:01.109Z,79.83
2023-03-04T02:29:29.968Z,80.30
2023-03-04T02:31:58.137Z,74.60
2023-03-04T02:34:30.219Z,81.63
2023-03-04T02:36:58.848Z,76.20
2023-03-04T02:39:33.006Z,77.13
2023-03-04T02:42:03.842Z,76.77
2023-03-04T02:44:35.715Z,79.83
2023-03-04T02:47:05.116Z,87.13
2023-03-04T02:49:35.489Z,75.43
2023-03-04T02:52:07.086Z,77.10
2023-03-04T02:54:35.105Z,77.60
2023-03-04T02:57:07.802Z,79.73
2023-03-04T02:59:38.524Z,83.23
2023-03-04T03:02:08.109Z,76.20
2023-03-04T03:04:37.891Z,77.60
2023-03-04T03:07:09.823Z,84.53
2023-03-04T03:09:38.056Z,79.23
2023-03-04T03:12:07.820Z,79.97
2023-03-04T03:14:35.930Z,77.27
2023-03-04T03:17:05.574Z,73.67
2023-03-04T03:19:33.570Z,78.20
2023-03-04T03:22:05.022Z,80.90
2023-03-04T03:24:33.447Z,77.73
2023-03-04T03:27:01.349Z,76.83
2023-03-04T03:29:30.854Z,70.77
2023-03-04T03:31:59.905Z,80.47
2023-03-04T03:34:27.906Z,82.30
2023-03-04T03:36:55.830Z,75.90
2023-03-04T03:39:23.757Z,80.10
2023-03-04T03:41:51.736Z,75.47
2023-03-04T03:44:19.642Z,77.13
2023-03-04T03:46:48.968Z,80.80
2023-03-04T03:49:17.238Z,77.67
2023-03-04T03:51:45.159Z,79.50
2023-03-04T03:54:13.152Z,73.43
2023-03-04T03:56:41.082Z,79.50
2023-03-04T03:59:09.200Z,83.30
2023-03-04T04:01:37.311Z,82.73
2023-03-04T04:04:06.904Z,79.87
2023-03-04T04:06:34.853Z,86.20
2023-03-04T04:09:02.763Z,82.17
2023-03-04T04:11:30.682Z,75.93
2023-03-04T04:13:58.659Z,78.63
2023-03-04T04:16:26.601Z,73.40
2023-03-04T04:18:54.560Z,77.73
2023-03-04T04:21:23.961Z,78.97
2023-03-04T04:23:51.927Z,85.07
2023-03-04T04:26:19.820Z,76.70
2023-03-04T04:28:47.710Z,80.87
2023-03-04T04:31:15.664Z,82.77
2023-03-04T04:33:43.606Z,79.13
2023-03-04T04:36:15.509Z,85.23
2023-03-04T04:38:45.820Z,80.93
2023-03-04T04:41:20.916Z,83.00
2023-03-04T04:43:49.240Z,80.37
2023-03-04T04:46:17.525Z,74.83
2023-03-04T04:48:45.832Z,79.03
2023-03-04T04:51:14.685Z,76.20
2023-03-04T04:53:44.796Z,75.80
2023-03-04T04:56:13.850Z,75.50
2023-03-04T04:58:42.448Z,79.23
2023-03-04T05:01:11.031Z,79.20
2023-03-04T05:03:40.155Z,80.23
2023-03-04T05:06:11.163Z,83.77
2023-03-04T05:08:39.826Z,81.40
2023-03-04T05:11:10.455Z,77.53
2023-03-04T05:13:38.575Z,76.73
2023-03-04T05:16:07.400Z,77.23
2023-03-04T05:18:35.577Z,74.13
2023-03-04T05:21:05.371Z,69.63
2023-03-04T05:23:35.296Z,71.87
2023-03-04T05:26:04.021Z,80.43
2023-03-04T05:28:33.518Z,82.27
2023-03-04T05:31:01.894Z,77.00
2023-03-04T05:33:30.436Z,70.07
2023-03-04T05:35:58.623Z,67.17
2023-03-04T05:38:27.006Z,69.37
2023-03-04T05:40:59.390Z,78.83
2023-03-04T05:43:27.964Z,62.73
2023-03-04T05:45:57.442Z,64.23
2023-03-04T05:48:25.805Z,67.77
2023-03-04T05:50:57.356Z,64.53
2023-03-04T05:53:25.467Z,66.83
2023-03-04T05:55:53.492Z,60.57
2023-03-04T05:58:22.091Z,72.33
2023-03-04T06:00:50.227Z,70.63
2023-03-04T06:03:22.030Z,71.40
2023-03-04T06:05:49.985Z,68.63
2023-03-04T06:08:17.904Z,71.07
2023-03-04T06:10:45.833Z,65.90
2023-03-04T06:13:14.563Z,68.13
2023-03-04T06:15:42.516Z,67.80
2023-03-04T06:18:10.585Z,65.70
2023-03-04T06:20:39.911Z,68.70
2023-03-04T06:23:07.827Z,62.83
2023-03-04T06:25:35.780Z,70.07
2023-03-04T06:28:03.730Z,67.40
2023-03-04T06:30:31.723Z,71.27
2023-03-04T06:32:59.729Z,65.43
2023-03-04T06:35:28.590Z,64.20
2023-03-04T06:37:57.894Z,70.50
2023-03-04T06:40:26.034Z,72.37
2023-03-04T06:42:53.972Z,70.17
2023-03-04T06:45:21.961Z,70.83
2023-03-04T06:47:49.876Z,69.03
2023-03-04T06:50:17.936Z,69.47
2023-03-04T06:52:45.879Z,64.13
2023-03-04T06:55:15.155Z,65.40
2023-03-04T06:57:43.069Z,64.07
2023-03-04T07:00:12.245Z,73.50
2023-03-04T07:02:40.115Z,66.77
2023-03-04T07:05:08.797Z,62.77
2023-03-04T07:07:36.806Z,66.67
2023-03-04T07:10:05.630Z,62.67
2023-03-04T07:12:34.986Z,61.87
2023-03-04T07:15:02.971Z,59.50
2023-03-04T07:17:30.977Z,61.50
2023-03-04T07:19:58.916Z,60.50
2023-03-04T07:22:26.920Z,60.63
2023-03-04T07:24:54.873Z,62.07
2023-03-04T07:27:22.777Z,67.20
2023-03-04T07:29:52.033Z,68.13
2023-03-04T07:32:20.053Z,69.47
2023-03-04T07:34:48.008Z,60.77
2023-03-04T07:37:15.972Z,67.87
2023-03-04T07:39:43.889Z,62.93
2023-03-04T07:42:11.949Z,68.50
2023-03-04T07:44:42.556Z,64.60
2023-03-04T07:47:11.843Z,71.33
2023-03-04T07:49:39.745Z,70.00
2023-03-04T07:52:08.858Z,64.93
2023-03-04T07:54:36.806Z,65.20
2023-03-04T07:57:04.885Z,72.03
2023-03-04T07:59:32.934Z,74.50
2023-03-04T08:02:00.846Z,67.60
2023-03-04T08:04:30.221Z,69.03
2023-03-04T08:06:58.199Z,68.20
2023-03-04T08:09:26.199Z,63.93
2023-03-04T08:11:54.168Z,65.77
2023-03-04T08:14:22.211Z,61.80
2023-03-04T08:16:50.096Z,62.83
2023-03-04T08:19:18.044Z,72.77
2023-03-04T08:21:47.377Z,64.97
2023-03-04T08:24:15.359Z,65.07
2023-03-04T08:26:45.569Z,66.97
2023-03-04T08:29:16.136Z,77.03
2023-03-04T08:31:48.562Z,75.40
2023-03-04T08:34:17.678Z,69.00
2023-03-04T08:36:46.982Z,63.93
2023-03-04T08:39:17.648Z,67.50
2023-03-04T08:41:46.638Z,68.17
2023-03-04T08:44:14.840Z,69.20
2023-03-04T08:46:43.846Z,65.07
2023-03-04T08:49:12.956Z,65.77
2023-03-04T08:51:41.173Z,66.60
2023-03-04T08:54:10.465Z,66.80
2023-03-04T08:56:38.391Z,65.77
2023-03-04T08:59:06.288Z,68.23
2023-03-04T09:01:34.348Z,63.67
2023-03-04T09:04:02.252Z,62.70
2023-03-04T09:06:30.195Z,63.30
2023-03-04T09:08:58.148Z,60.50
2023-03-04T09:11:27.396Z,62.53
2023-03-04T09:13:55.333Z,63.27
2023-03-04T09:16:23.595Z,65.20
2023-03-04T09:18:51.572Z,71.20
2023-03-04T09:21:19.452Z,64.83
2023-03-04T09:23:47.409Z,64.93
2023-03-04T09:26:17.347Z,62.83
2023-03-04T09:28:46.609Z,70.87
2023-03-04T09:31:15.657Z,65.70
2023-03-04T09:33:43.603Z,62.67
2023-03-04T09:36:12.822Z,67.80
2023-03-04T09:38:41.137Z,69.90
2023-03-04T09:41:11.567Z,60.73
2023-03-04T09:43:41.110Z,59.53
2023-03-04T09:46:16.011Z,61.07
2023-03-04T09:48:46.409Z,60.33
2023-03-04T09:51:22.351Z,60.93
2023-03-04T09:54:00.049Z,65.27
2023-03-04T09:56:29.261Z,58.83
2023-03-04T09:59:05.006Z,64.63
2023-03-04T10:01:38.023Z,66.87
2023-03-04T10:04:14.293Z,64.87
2023-03-04T10:06:43.391Z,61.50
2023-03-04T10:09:15.354Z,64.40
2023-03-04T10:11:46.628Z,66.00
2023-03-04T10:14:39.476Z,62.93
2023-03-04T10:17:15.489Z,61.57
2023-03-04T10:19:54.185Z,61.33
2023-03-04T10:22:30.022Z,58.57
2023-03-04T10:25:00.403Z,60.53
2023-03-04T10:27:30.261Z,64.77
2023-03-04T10:30:01.696Z,63.13
2023-03-04T10:32:31.000Z,57.63
2023-03-04T10:34:59.066Z,58.77
2023-03-04T10:37:45.124Z,58.43
2023-03-04T10:40:20.982Z,55.03
2023-03-04T10:42:50.976Z,57.53
2023-03-04T10:45:24.610Z,53.67
2023-03-04T10:47:58.787Z,48.67
2023-03-04T10:50:29.218Z,52.73
2023-03-04T10:52:58.130Z,51.50
2023-03-04T10:55:28.928Z,50.50
2023-03-04T10:58:03.080Z,54.87
2023-03-04T11:00:33.411Z,46.00
2023-03-04T11:03:29.429Z,50.97
2023-03-04T11:06:11.822Z,53.83
2023-03-04T11:08:41.416Z,50.67
2023-03-04T11:11:23.784Z,51.00
2023-03-04T11:13:54.400Z,56.30
2023-03-04T11:16:28.545Z,54.37
2023-03-04T11:19:01.643Z,58.40
2023-03-04T11:21:33.238Z,53.40
2023-03-04T11:24:03.023Z,56.63
2023-03-04T11:26:35.007Z,50.03
2023-03-04T11:29:09.534Z,51.73
2023-03-04T11:31:41.649Z,55.53
2023-03-04T11:34:19.125Z,53.60
2023-03-04T11:36:57.221Z,54.00
2023-03-04T11:39:31.410Z,51.57
2023-03-04T11:42:03.971Z,57.63
2023-03-04T11:44:32.175Z,55.00
2023-03-04T11:47:36.169Z,54.73
2023-03-04T11:50:36.233Z,53.90
2023-03-04T11:53:25.041Z,56.93
2023-03-04T11:56:04.066Z,60.20
2023-03-04T11:59:05.800Z,56.10
2023-03-04T12:01:43.298Z,53.83
2023-03-04T12:04:30.821Z,49.10
2023-03-04T12:07:13.626Z,54.13
2023-03-04T12:09:49.131Z,55.03
2023-03-04T12:12:34.286Z,58.07
2023-03-04T12:15:14.529Z,57.03
2023-03-04T12:18:01.348Z,54.67
2023-03-04T12:20:41.858Z,57.13
2023-03-04T12:23:26.005Z,55.37
2023-03-04T12:26:01.752Z,53.50
2023-03-04T12:28:52.296Z,60.20
2023-03-04T12:31:34.393Z,54.80
2023-03-04T12:34:20.987Z,54.83
2023-03-04T12:36:56.103Z,52.00
2023-03-04T12:39:33.477Z,54.17
2023-03-04T12:42:11.697Z,55.83
2023-03-04T12:44:47.487Z,53.90
2023-03-04T12:47:28.768Z,50.90
2023-03-04T12:50:21.449Z,55.60
2023-03-04T12:52:59.325Z,52.43
2023-03-04T12:55:36.485Z,52.38
2023-03-04T12:58:05.165Z,56.97
2023-03-04T13:00:43.137Z,54.80
2023-03-04T13:03:16.889Z,54.23
2023-03-04T13:05:57.300Z,55.07
2023-03-04T13:08:36.629Z,58.60
2023-03-04T13:11:43.649Z,46.93
2023-03-04T13:14:31.616Z,54.30
2023-03-04T13:17:01.957Z,52.92
2023-03-04T13:19:51.438Z,53.08
2023-03-04T13:22:44.232Z,53.33
2023-03-04T13:25:41.833Z,52.97
2023-03-04T13:28:26.121Z,60.43
2023-03-04T13:31:20.128Z,51.97
2023-03-04T13:34:08.106Z,52.40
2023-03-04T13:36:55.935Z,48.40
2023-03-04T13:39:32.794Z,51.85
2023-03-04T13:42:01.434Z,54.55
2023-03-04T13:44:58.687Z,51.15
2023-03-04T13:47:48.364Z,52.30
2023-03-04T13:50:31.761Z,54.85
2023-03-04T13:53:21.187Z,52.67
2023-03-04T13:56:06.711Z,48.63
2023-03-04T13:58:35.246Z,53.97
2023-03-04T14:01:06.932Z,47.63
2023-03-04T14:03:36.670Z,49.90
2023-03-04T14:06:18.982Z,54.42
2023-03-04T14:08:47.890Z,51.50
2023-03-04T14:11:18.367Z,45.72
2023-03-04T14:13:46.553Z,48.35
2023-03-04T14:16:21.711Z,46.03
2023-03-04T14:18:59.381Z,44.00
2023-03-04T14:21:27.548Z,45.90
2023-03-04T14:24:03.794Z,53.10
2023-03-04T14:26:31.977Z,46.20
2023-03-04T14:29:02.712Z,47.55
2023-03-04T14:31:35.604Z,47.75
2023-03-04T14:34:04.430Z,42.50
2023-03-04T14:36:34.600Z,45.00
2023-03-04T14:39:06.856Z,37.17
2023-03-04T14:41:36.767Z,45.83
2023-03-04T14:44:15.246Z,46.22
2023-03-04T14:47:04.678Z,41.53
2023-03-04T14:49:36.864Z,41.60
2023-03-04T14:52:05.078Z,41.90
2023-03-04T14:54:37.042Z,43.13
2023-03-04T14:57:24.133Z,41.83
2023-03-04T14:59:53.097Z,39.38
2023-03-04T15:02:31.177Z,43.47
2023-03-04T15:05:01.298Z,42.58
2023-03-04T15:07:34.629Z,41.03
2023-03-04T15:10:04.623Z,46.65
2023-03-04T15:12:35.485Z,41.50
2023-03-04T15:15:06.417Z,42.63
2023-03-04T15:17:38.833Z,45.25
2023-03-04T15:20:26.922Z,40.65
2023-03-04T15:23:03.580Z,42.22
2023-03-04T15:25:32.139Z,34.55
2023-03-04T15:28:02.611Z,42.75
2023-03-04T15:30:33.296Z,41.05
2023-03-04T15:33:02.623Z,47.30
2023-03-04T15:35:33.049Z,39.33
2023-03-04T15:38:01.523Z,42.03
2023-03-04T15:40:32.597Z,42.38
2023-03-04T15:43:02.969Z,47.05
2023-03-04T15:45:35.997Z,50.80
2023-03-04T15:48:07.962Z,46.85
2023-03-04T15:50:38.551Z,50.15
2023-03-04T15:53:09.610Z,49.42
2023-03-04T15:55:38.196Z,50.33
2023-03-04T15:58:07.481Z,51.20
2023-03-04T16:00:35.413Z,49.17
2023-03-04T16:03:03.347Z,43.20
2023-03-04T16:05:32.991Z,52.42
2023-03-04T16:08:00.923Z,45.70
2023-03-04T16:10:31.140Z,49.42
2023-03-04T16:12:59.444Z,51.65
2023-03-04T16:15:29.273Z,50.72
2023-03-04T16:17:58.013Z,49.45
2023-03-04T16:20:30.113Z,56.45
2023-03-04T16:23:01.490Z,56.75
2023-03-04T16:25:31.065Z,59.22
2023-03-04T16:28:04.004Z,55.33
2023-03-04T16:30:32.909Z,56.35
2023-03-04T16:33:00.822Z,55.15
2023-03-04T16:35:29.689Z,57.33
2023-03-04T16:37:59.107Z,59.13
2023-03-04T16:40:29.316Z,57.38
2023-03-04T16:42:57.342Z,53.70
2023-03-04T16:45:30.214Z,55.70
2023-03-04T16:47:58.167Z,60.88
2023-03-04T16:50:30.053Z,57.08
2023-03-04T16:52:59.348Z,57.78
2023-03-04T16:55:28.751Z,58.72
2023-03-04T16:57:57.850Z,63.45
2023-03-04T17:00:28.485Z,61.22
2023-03-04T17:02:58.865Z,56.05
2023-03-04T17:05:29.251Z,59.38
2023-03-04T17:07:57.311Z,60.47
2023-03-04T17:10:27.214Z,61.20
2023-03-04T17:12:55.651Z,58.72
2023-03-04T17:15:23.598Z,57.42
2023-03-04T17:17:52.657Z,61.75
2023-03-04T17:20:20.795Z,62.10
2023-03-04T17:22:48.708Z,61.70
2023-03-04T17:25:17.339Z,58.65
2023-03-04T17:27:46.662Z,64.60
2023-03-04T17:30:15.568Z,72.22
2023-03-04T17:32:43.561Z,127.65
2023-03-04T17:35:12.497Z,61.45
2023-03-04T17:37:40.678Z,65.63
2023-03-04T17:40:14.035Z,68.28
2023-03-04T17:42:42.471Z,60.78
2023-03-04T17:45:12.767Z,61.40
2023-03-04T17:47:40.683Z,64.10
2023-03-04T17:50:10.097Z,80.43
2023-03-04T17:52:38.204Z,58.63
2023-03-04T17:55:07.030Z,64.60
2023-03-04T17:57:37.134Z,61.97
2023-03-04T18:00:06.944Z,61.30
2023-03-04T18:02:36.323Z,67.60
2023-03-04T18:05:07.416Z,65.10
2023-03-04T18:07:35.339Z,68.17
2023-03-04T18:10:03.282Z,61.63
2023-03-04T18:12:31.227Z,67.73
2023-03-04T18:14:59.206Z,63.43
2023-03-04T18:17:27.681Z,69.20
2023-03-04T18:19:57.246Z,65.40
2023-03-04T18:22:25.140Z,68.47
2023-03-04T18:24:53.062Z,67.40
2023-03-04T18:27:20.985Z,63.72
2023-03-04T18:29:48.916Z,68.23
2023-03-04T18:32:16.871Z,72.00
2023-03-04T18:34:44.785Z,68.13
2023-03-04T18:37:14.116Z,69.50
2023-03-04T18:39:42.046Z,71.43
2023-03-04T18:42:09.933Z,67.40
2023-03-04T18:44:37.849Z,67.03
2023-03-04T18:47:06.904Z,73.80
2023-03-04T18:49:35.405Z,71.10
2023-03-04T18:52:03.321Z,71.67
2023-03-04T18:54:32.579Z,69.00
2023-03-04T18:57:03.460Z,67.53
2023-03-04T18:59:37.076Z,68.67
2023-03-04T19:02:10.812Z,73.87
2023-03-04T19:04:38.739Z,69.30
2023-03-04T19:07:06.591Z,72.27
2023-03-04T19:09:35.859Z,67.87
2023-03-04T19:12:05.923Z,67.70
2023-03-04T19:14:33.979Z,69.83
2023-03-04T19:17:01.869Z,70.23
2023-03-04T19:19:29.782Z,61.93
2023-03-04T19:21:58.391Z,65.50
2023-03-04T19:24:26.445Z,72.87
2023-03-04T19:26:55.770Z,67.47
2023-03-04T19:29:23.658Z,66.10
2023-03-04T19:31:51.548Z,63.67
2023-03-04T19:34:19.444Z,72.23
2023-03-04T19:36:47.363Z,72.97
2023-03-04T19:39:15.727Z,69.27
2023-03-04T19:41:44.182Z,78.63
2023-03-04T19:44:13.484Z,65.70
2023-03-04T19:46:41.468Z,71.10
2023-03-04T19:49:10.309Z,67.43
2023-03-04T19:51:38.304Z,68.87
2023-03-04T19:54:06.271Z,68.07
2023-03-04T19:56:34.197Z,69.37
2023-03-04T19:59:02.545Z,64.53
2023-03-04T20:01:33.808Z,67.03
2023-03-04T20:04:03.863Z,65.23
2023-03-04T20:06:31.924Z,70.37
2023-03-04T20:09:01.838Z,68.73
2023-03-04T20:11:31.190Z,67.93
2023-03-04T20:13:59.754Z,72.83
2023-03-04T20:16:28.742Z,73.33
2023-03-04T20:18:58.936Z,73.30
2023-03-04T20:21:27.248Z,70.27
2023-03-04T20:23:55.319Z,66.67
2023-03-04T20:26:23.730Z,73.97
2023-03-04T20:28:51.673Z,65.70
2023-03-04T20:31:22.008Z,71.57
2023-03-04T20:33:50.646Z,66.23
2023-03-04T20:36:22.389Z,66.97
2023-03-04T20:38:55.856Z,73.80
2023-03-04T20:41:29.614Z,77.77
2023-03-04T20:43:57.560Z,70.57
2023-03-04T20:46:30.142Z,70.90
2023-03-04T20:48:59.612Z,64.93
2023-03-04T20:51:29.424Z,70.40
2023-03-04T20:53:57.408Z,70.93
2023-03-04T20:56:26.352Z,68.77
2023-03-04T20:58:56.230Z,69.07
2023-03-04T21:01:24.868Z,67.23
2023-03-04T21:03:53.200Z,74.87
2023-03-04T21:06:21.242Z,67.37
2023-03-04T21:08:50.517Z,74.37
2023-03-04T21:11:19.153Z,66.93
2023-03-04T21:13:53.914Z,68.77
2023-03-04T21:16:21.847Z,71.63
2023-03-04T21:18:49.771Z,68.83
2023-03-04T21:21:25.602Z,69.13
2023-03-04T21:23:56.426Z,77.13
2023-03-04T21:26:25.364Z,72.87
2023-03-04T21:28:54.420Z,73.33
2023-03-04T21:31:24.528Z,75.67
2023-03-04T21:33:54.209Z,67.60
2023-03-04T21:36:22.620Z,68.63
2023-03-04T21:38:51.242Z,69.97
2023-03-04T21:41:22.485Z,73.53
2023-03-04T21:43:51.016Z,69.20
2023-03-04T21:46:19.680Z,68.73
2023-03-04T21:48:48.357Z,74.90
2023-03-04T21:51:17.819Z,70.57
2023-03-04T21:53:45.827Z,71.13
2023-03-04T21:56:14.036Z,69.90
2023-03-04T21:58:43.293Z,72.83
2023-03-04T22:01:12.178Z,67.80
2023-03-04T22:03:40.565Z,68.83
2023-03-04T22:06:10.483Z,71.67
2023-03-04T22:08:40.052Z,73.10
2023-03-04T22:11:09.668Z,71.73
2023-03-04T22:13:38.338Z,77.73
2023-03-04T22:16:08.166Z,69.47
2023-03-04T22:18:38.446Z,75.87
2023-03-04T22:21:09.173Z,68.33
2023-03-04T22:23:37.336Z,64.80
2023-03-04T22:26:06.565Z,70.30
2023-03-04T22:28:35.241Z,65.17
2023-03-04T22:31:03.181Z,66.43
2023-03-04T22:33:37.167Z,65.87
2023-03-04T22:36:07.800Z,61.43
2023-03-04T22:38:36.131Z,60.10
2023-03-04T22:41:04.185Z,63.33
2023-03-04T22:43:32.221Z,64.63
2023-03-04T22:46:01.760Z,61.80
2023-03-04T22:48:29.684Z,64.80
2023-03-04T22:50:58.962Z,65.20
2023-03-04T22:53:27.069Z,65.87
2023-03-04T22:55:58.803Z,67.60
2023-03-04T22:58:26.826Z,63.93
2023-03-04T23:00:54.723Z,69.73
2023-03-04T23:03:22.668Z,68.37
2023-03-04T23:05:50.664Z,70.13
2023-03-04T23:08:19.879Z,66.87
2023-03-04T23:10:47.789Z,62.70
2023-03-04T23:13:16.150Z,68.63
2023-03-04T23:15:44.041Z,65.43
2023-03-04T23:18:11.945Z,67.47
2023-03-04T23:20:42.287Z,66.93
2023-03-04T23:23:10.356Z,65.17
2023-03-04T23:25:39.899Z,61.47
2023-03-04T23:28:07.812Z,67.77
2023-03-04T23:30:35.813Z,65.97
2023-03-04T23:33:03.786Z,70.50
2023-03-04T23:35:31.665Z,68.57
2023-03-04T23:37:59.597Z,70.23
2023-03-04T23:40:27.560Z,67.40
2023-03-04T23:42:57.094Z,68.73
2023-03-04T23:45:25.006Z,65.87
2023-03-04T23:47:52.964Z,66.47
2023-03-04T23:50:21.269Z,61.67
2023-03-04T23:52:49.760Z,65.87
2023-03-04T23:55:19.224Z,69.67
2023-03-04T23:57:48.208Z,66.80
